Time;durP1;ratioP1;P1;durP2;ratioP2;P2;SDS_P1;SDS_P2;PMS_P1;PMS_P2;Temp;Humidity;BMP_temperature;BMP_pressure;BME280_temperature;BME280_humidity;BME280_pressure;Samples;Min_cycle;Max_cycle;Signal;HPM_P1;HPM_P2
2021/06/29 00:00:42;;;;;;;2.80;2.03;;;;;;;22.84;66.75;100168.78;5062918;28;20420;-87
2021/06/29 00:03:08;;;;;;;4.10;2.20;;;;;;;22.85;67.23;100160.16;5055485;28;20402;-87
2021/06/29 00:05:35;;;;;;;5.53;2.03;;;;;;;22.82;67.64;100154.50;5065854;28;20764;-87
2021/06/29 00:08:05;;;;;;;3.95;2.28;;;;;;;22.73;67.69;100152.56;5065533;28;20490;-87
2021/06/29 00:10:31;;;;;;;4.47;2.35;;;;;;;22.70;67.45;100150.47;5064907;28;20421;-87
2021/06/29 00:12:58;;;;;;;4.28;2.30;;;;;;;22.75;67.43;100150.28;5049355;28;20399;-86
2021/06/29 00:15:25;;;;;;;12.30;2.17;;;;;;;22.79;67.73;100160.69;5062627;28;21054;-87
2021/06/29 00:17:51;;;;;;;6.15;2.33;;;;;;;22.72;67.96;100161.22;5063580;28;20828;-87
2021/06/29 00:20:17;;;;;;;3.93;2.37;;;;;;;22.64;68.50;100150.97;5050623;28;20475;-87
2021/06/29 00:22:43;;;;;;;2.83;2.03;;;;;;;22.66;68.60;100159.75;5059313;28;20790;-87
2021/06/29 00:25:10;;;;;;;5.25;2.10;;;;;;;22.64;68.45;100168.34;5057700;28;20946;-87
2021/06/29 00:27:36;;;;;;;3.97;1.95;;;;;;;22.65;68.91;100152.59;5082455;28;20404;-87
2021/06/29 00:30:01;;;;;;;14.57;2.73;;;;;;;22.61;68.72;100140.59;5065360;28;20415;-86
2021/06/29 00:32:26;;;;;;;5.85;2.63;;;;;;;22.64;68.97;100139.91;5052672;28;20397;-86
2021/06/29 00:34:51;;;;;;;8.07;2.17;;;;;;;22.53;69.43;100131.19;5055108;28;20448;-86
2021/06/29 00:37:17;;;;;;;5.83;2.27;;;;;;;22.52;69.38;100126.84;5057522;28;20406;-87
2021/06/29 00:39:42;;;;;;;6.97;2.70;;;;;;;22.57;69.08;100125.81;5052335;28;20422;-86
2021/06/29 00:42:08;;;;;;;7.67;2.17;;;;;;;22.58;68.89;100113.63;5080236;28;20397;-86
2021/06/29 00:44:33;;;;;;;7.80;2.60;;;;;;;22.55;69.29;100100.50;5058001;28;20776;-86
2021/06/29 00:46:58;;;;;;;9.13;2.43;;;;;;;22.57;69.31;100087.97;5044839;28;20394;-86
2021/06/29 00:49:25;;;;;;;14.03;2.90;;;;;;;22.54;69.03;100091.41;5067694;28;20504;-86
2021/06/29 00:51:50;;;;;;;7.00;2.65;;;;;;;22.47;69.26;100104.09;5045650;28;20533;-86
2021/06/29 00:54:15;;;;;;;5.33;2.37;;;;;;;22.38;69.75;100084.00;5046750;28;20966;-87
2021/06/29 00:56:44;;;;;;;7.05;2.50;;;;;;;22.38;69.54;100097.81;5057192;28;20397;-86
2021/06/29 00:59:09;;;;;;;5.35;2.33;;;;;;;22.33;68.93;100073.16;5062462;28;20396;-87
2021/06/29 01:01:34;;;;;;;4.20;2.53;;;;;;;22.35;68.86;100085.50;5073508;28;20393;-86
2021/06/29 01:04:00;;;;;;;6.40;2.80;;;;;;;22.37;69.34;100093.44;5068418;28;20400;-86
2021/06/29 01:06:27;;;;;;;3.10;2.63;;;;;;;22.36;69.75;100080.78;5057354;28;20395;-87
2021/06/29 01:08:53;;;;;;;6.70;2.80;;;;;;;22.39;69.46;100102.22;5063862;28;20477;-86
2021/06/29 01:11:18;;;;;;;2.77;2.40;;;;;;;22.39;69.65;100088.41;5050205;28;20789;-86
2021/06/29 01:13:45;;;;;;;6.23;2.80;;;;;;;22.42;69.60;100080.25;5058225;28;20930;-86
2021/06/29 01:16:11;;;;;;;3.90;2.75;;;;;;;22.38;69.09;100089.53;5051565;28;20437;-86
2021/06/29 01:18:39;;;;;;;4.82;2.60;;;;;;;22.32;69.40;100079.81;5056107;28;20494;-86
2021/06/29 01:21:05;;;;;;;2.80;2.50;;;;;;;22.30;69.23;100088.41;5059754;28;20861;-87
2021/06/29 01:23:31;;;;;;;2.70;2.50;;;;;;;22.28;69.41;100093.47;5061824;28;20418;-86
2021/06/29 01:26:03;;;;;;;7.95;3.20;;;;;;;22.21;69.83;100104.22;5063838;28;20390;-86
2021/06/29 01:28:32;;;;;;;6.38;3.50;;;;;;;22.25;69.76;100118.97;5055338;28;20403;-86
2021/06/29 01:31:06;;;;;;;3.42;3.15;;;;;;;22.23;69.90;100113.78;5050480;28;20408;-87
2021/06/29 01:33:32;;;;;;;6.75;2.83;;;;;;;22.21;70.39;100129.88;5057697;28;20391;-86
2021/06/29 01:35:58;;;;;;;3.13;2.70;;;;;;;22.20;70.46;100133.75;5057943;28;20403;-86
2021/06/29 01:38:23;;;;;;;9.80;2.60;;;;;;;22.16;70.77;100148.56;5059015;28;20488;-86
2021/06/29 01:40:50;;;;;;;5.30;2.43;;;;;;;22.16;70.55;100140.28;5048252;28;20417;-86
2021/06/29 01:43:19;;;;;;;7.10;3.00;;;;;;;22.20;70.27;100144.00;5054413;28;20410;-87
2021/06/29 01:45:47;;;;;;;8.90;2.90;;;;;;;22.15;70.27;100150.50;5082697;28;20398;-86
2021/06/29 01:48:22;;;;;;;4.40;2.72;;;;;;;22.11;70.32;100157.81;5078284;28;20413;-87
2021/06/29 01:50:48;;;;;;;6.93;3.45;;;;;;;22.06;70.48;100168.25;5053470;28;20395;-86
2021/06/29 01:53:14;;;;;;;4.10;2.85;;;;;;;22.06;70.67;100148.91;5042191;28;20894;-87
2021/06/29 01:55:40;;;;;;;5.63;3.17;;;;;;;22.03;70.70;100146.81;5059388;28;20496;-86
2021/06/29 01:58:05;;;;;;;6.13;2.80;;;;;;;22.02;70.55;100140.50;5047225;28;20949;-86
2021/06/29 02:00:30;;;;;;;8.23;2.83;;;;;;;22.05;70.48;100133.50;5061425;28;20442;-86
2021/06/29 02:02:56;;;;;;;6.80;3.23;;;;;;;22.01;70.50;100122.31;5067997;28;20424;-86
2021/06/29 02:05:21;;;;;;;5.07;2.83;;;;;;;22.01;70.33;100119.53;5048949;28;20396;-86
2021/06/29 02:07:46;;;;;;;4.93;2.70;;;;;;;22.05;70.20;100119.69;5063499;28;20857;-86
2021/06/29 02:10:13;;;;;;;5.03;2.93;;;;;;;22.00;70.40;100119.84;5052176;28;20426;-86
2021/06/29 02:12:39;;;;;;;6.88;3.00;;;;;;;21.95;70.36;100120.03;5065213;28;20901;-86
2021/06/29 02:15:05;;;;;;;6.67;3.40;;;;;;;21.89;70.43;100124.94;5060816;28;20415;-86
2021/06/29 02:17:30;;;;;;;6.85;2.92;;;;;;;21.90;70.29;100117.47;5059547;28;20531;-86
2021/06/29 02:19:55;;;;;;;9.77;2.73;;;;;;;21.93;70.44;100116.81;5049493;28;20406;-86
2021/06/29 02:22:21;;;;;;;7.97;2.80;;;;;;;21.89;70.58;100110.28;5054179;28;20433;-86
2021/06/29 02:24:46;;;;;;;7.87;3.33;;;;;;;21.88;70.55;100112.25;5075687;28;20401;-86
2021/06/29 02:27:11;;;;;;;4.90;2.80;;;;;;;21.85;70.58;100120.38;5056748;28;20773;-86
2021/06/29 02:29:36;;;;;;;9.23;2.90;;;;;;;21.83;70.59;100120.72;5058580;28;20438;-86
2021/06/29 02:32:02;;;;;;;5.63;2.60;;;;;;;21.84;70.79;100121.50;5059795;28;20397;-86
2021/06/29 02:34:27;;;;;;;5.47;3.07;;;;;;;21.88;70.68;100115.00;5048237;28;20403;-86
2021/06/29 02:36:52;;;;;;;4.57;2.83;;;;;;;21.89;70.70;100113.06;5050283;28;20785;-86
2021/06/29 02:39:18;;;;;;;5.53;2.90;;;;;;;21.88;70.67;100106.72;5049212;28;20909;-86
2021/06/29 02:41:43;;;;;;;4.07;2.77;;;;;;;21.93;69.93;100120.38;5065888;28;20496;-86
2021/06/29 02:44:09;;;;;;;3.17;2.80;;;;;;;21.87;70.31;100115.31;5045502;28;20426;-86
2021/06/29 02:46:35;;;;;;;3.75;3.03;;;;;;;21.84;70.14;100118.72;5059821;28;20906;-87
2021/06/29 02:49:00;;;;;;;9.18;3.30;;;;;;;21.82;70.55;100121.84;5058187;28;20506;-86
2021/06/29 02:51:25;;;;;;;3.33;2.70;;;;;;;21.81;70.57;100122.16;5074617;28;20417;-86
2021/06/29 02:53:51;;;;;;;2.53;2.20;;;;;;;21.80;70.65;100132.38;5050155;28;20742;-86
2021/06/29 02:59:00;;;;;;;2.58;2.40;;;;;;;21.73;70.67;100123.81;5057994;28;20384;-86
2021/06/29 03:01:25;;;;;;;4.47;2.70;;;;;;;21.68;70.74;100115.69;5056935;28;20388;-87
2021/06/29 03:03:50;;;;;;;4.20;2.53;;;;;;;21.64;70.61;100118.28;5075984;28;20435;-86
2021/06/29 03:06:16;;;;;;;5.20;2.30;;;;;;;21.59;70.48;100099.16;5058167;28;20409;-86
2021/06/29 03:08:41;;;;;;;3.92;2.85;;;;;;;21.63;70.43;100104.84;5062694;28;20510;-87
2021/06/29 03:11:07;;;;;;;5.10;3.00;;;;;;;21.65;70.57;100097.84;5061449;28;20482;-86
2021/06/29 03:13:32;;;;;;;3.53;2.40;;;;;;;21.66;70.54;100096.72;5065286;28;20855;-87
2021/06/29 03:15:57;;;;;;;3.57;2.60;;;;;;;21.68;70.13;100096.38;5059012;28;20407;-86
2021/06/29 03:18:23;;;;;;;4.13;2.90;;;;;;;21.67;70.44;100106.59;5059887;28;20467;-86
2021/06/29 03:20:49;;;;;;;2.85;2.17;;;;;;;21.61;70.40;100096.06;5059979;28;20396;-86
2021/06/29 03:23:15;;;;;;;4.33;2.20;;;;;;;21.60;70.35;100086.19;5059632;28;20418;-87
2021/06/29 03:25:40;;;;;;;2.60;2.00;;;;;;;21.61;70.28;100096.06;5056868;28;20494;-86
2021/06/29 03:28:05;;;;;;;2.70;1.97;;;;;;;21.60;70.09;100091.72;5057813;28;20406;-86
2021/06/29 03:30:31;;;;;;;2.40;2.30;;;;;;;21.57;70.25;100090.38;5054971;28;20465;-87
2021/06/29 03:32:56;;;;;;;3.60;2.38;;;;;;;21.56;70.30;100087.97;5063424;28;20852;-86
2021/06/29 03:35:21;;;;;;;6.73;2.13;;;;;;;21.54;70.21;100090.22;5056772;28;20401;-86
2021/06/29 03:37:47;;;;;;;2.37;2.10;;;;;;;21.51;70.14;100088.13;5056211;28;20811;-87
2021/06/29 03:40:13;;;;;;;3.70;2.47;;;;;;;21.53;69.76;100091.38;5051995;28;20405;-87
2021/06/29 03:42:38;;;;;;;4.72;2.22;;;;;;;21.48;70.29;100091.53;5057793;28;20380;-86
2021/06/29 03:45:05;;;;;;;3.88;2.35;;;;;;;21.42;70.29;100096.41;5063724;28;20402;-86
2021/06/29 03:47:30;;;;;;;2.17;1.95;;;;;;;21.40;70.45;100084.09;5060467;28;20869;-87
2021/06/29 03:49:55;;;;;;;3.23;2.20;;;;;;;21.42;70.32;100088.16;5054431;28;20427;-86
2021/06/29 03:52:20;;;;;;;4.27;2.10;;;;;;;21.39;69.89;100096.25;5058758;28;20393;-86
2021/06/29 03:54:46;;;;;;;3.40;2.10;;;;;;;21.36;69.81;100100.47;5063579;28;20399;-87
2021/06/29 03:57:11;;;;;;;3.05;2.30;;;;;;;21.39;70.05;100102.59;5052187;28;20556;-87
2021/06/29 03:59:36;;;;;;;6.33;2.07;;;;;;;21.41;69.73;100107.75;5062643;28;20395;-87
2021/06/29 04:02:02;;;;;;;3.10;2.00;;;;;;;21.39;69.99;100097.06;5067526;28;20880;-87
2021/06/29 04:04:27;;;;;;;3.97;2.67;;;;;;;21.42;70.05;100099.16;5050153;28;20401;-87
2021/06/29 04:06:53;;;;;;;5.50;2.15;;;;;;;21.44;69.91;100096.09;5054831;28;20765;-87
2021/06/29 04:09:18;;;;;;;3.30;2.07;;;;;;;21.45;69.85;100094.94;5055638;28;20425;-87
2021/06/29 04:11:43;;;;;;;5.07;2.33;;;;;;;21.46;70.09;100089.13;5059423;28;20400;-87
2021/06/29 04:14:09;;;;;;;2.45;2.03;;;;;;;21.48;69.77;100077.75;5061879;28;20399;-87
2021/06/29 04:16:34;;;;;;;5.27;1.97;;;;;;;21.49;69.35;100076.63;5066161;28;20400;-86
2021/06/29 04:19:00;;;;;;;3.90;2.13;;;;;;;21.46;69.46;100067.06;5064117;28;20505;-87
2021/06/29 04:21:25;;;;;;;6.13;2.20;;;;;;;21.48;69.49;100050.19;5048370;28;20415;-87
2021/06/29 04:23:51;;;;;;;2.33;2.00;;;;;;;21.51;69.30;100050.34;5048803;28;20411;-87
2021/06/29 04:26:17;;;;;;;3.17;2.10;;;;;;;21.54;69.01;100043.34;5060180;28;20424;-86
2021/06/29 04:28:43;;;;;;;4.17;2.00;;;;;;;21.54;69.09;100046.94;5066555;28;20938;-86
2021/06/29 04:31:08;;;;;;;2.40;2.03;;;;;;;21.54;69.10;100037.84;5060557;28;20408;-86
2021/06/29 04:33:33;;;;;;;5.00;2.00;;;;;;;21.57;68.89;100039.97;5052594;28;20760;-86
2021/06/29 04:35:59;;;;;;;4.30;1.60;;;;;;;21.56;69.14;100043.84;5060309;28;20394;-86
2021/06/29 04:38:24;;;;;;;3.57;1.97;;;;;;;21.51;69.11;100038.50;5052568;28;20480;-85
2021/06/29 04:40:49;;;;;;;4.97;2.30;;;;;;;21.48;69.19;100041.91;5059537;28;20408;-85
2021/06/29 04:43:15;;;;;;;2.97;1.93;;;;;;;21.48;69.52;100045.47;5060363;28;20537;-86
2021/06/29 04:45:40;;;;;;;5.47;2.03;;;;;;;21.51;69.52;100047.59;5056080;28;20729;-86
2021/06/29 04:48:06;;;;;;;2.87;2.10;;;;;;;21.54;69.51;100055.19;5061190;28;20925;-86
2021/06/29 04:50:31;;;;;;;2.10;1.80;;;;;;;21.54;69.27;100062.66;5068614;28;20410;-86
2021/06/29 04:52:57;;;;;;;4.70;2.00;;;;;;;21.54;69.65;100068.16;5054246;28;20431;-86
2021/06/29 04:55:22;;;;;;;6.60;2.23;;;;;;;21.59;69.54;100066.06;5052319;28;20407;-85
2021/06/29 04:57:47;;;;;;;5.50;2.40;;;;;;;21.64;69.55;100065.06;5068293;28;20406;-85
2021/06/29 05:00:16;;;;;;;8.80;2.42;;;;;;;21.70;69.19;100052.75;5074787;28;20392;-85
2021/06/29 05:02:42;;;;;;;2.53;1.98;;;;;;;21.72;69.07;100043.00;5042976;28;20413;-84
2021/06/29 05:05:09;;;;;;;4.53;2.20;;;;;;;21.70;68.85;100044.47;5038615;28;20417;-85
2021/06/29 05:07:39;;;;;;;2.35;2.15;;;;;;;21.77;68.52;100042.00;5039501;28;20829;-85
2021/06/29 05:10:09;;;;;;;6.15;2.55;;;;;;;21.81;68.74;100037.44;5051710;28;20513;-85
2021/06/29 05:12:36;;;;;;;4.38;2.17;;;;;;;21.82;68.79;100039.09;5050798;28;20503;-85
2021/06/29 05:15:01;;;;;;;4.35;2.20;;;;;;;21.81;68.66;100034.69;5036884;28;20770;-84
2021/06/29 05:17:26;;;;;;;5.80;2.42;;;;;;;21.84;68.96;100024.94;5032739;28;20442;-86
2021/06/29 05:19:52;;;;;;;4.37;2.23;;;;;;;21.85;68.63;100024.63;5033456;28;20419;-85
2021/06/29 05:22:17;;;;;;;4.30;2.27;;;;;;;21.89;68.62;100020.09;5037988;28;20831;-87
2021/06/29 05:24:42;;;;;;;5.47;2.20;;;;;;;21.90;68.88;100007.91;5045164;28;20405;-85
2021/06/29 05:27:08;;;;;;;8.57;2.30;;;;;;;21.91;68.63;100011.47;5041932;28;20824;-86
2021/06/29 05:29:33;;;;;;;5.60;2.30;;;;;;;21.98;68.52;100009.84;5053000;28;20416;-85
2021/06/29 05:31:59;;;;;;;5.43;2.70;;;;;;;22.03;68.27;100011.63;5042310;28;20480;-85
2021/06/29 05:34:24;;;;;;;4.60;2.50;;;;;;;22.03;68.40;100009.63;5052646;28;20394;-84
2021/06/29 05:36:49;;;;;;;4.10;2.10;;;;;;;22.04;67.92;100018.72;5040405;28;20524;-83
2021/06/29 05:39:15;;;;;;;7.07;3.00;;;;;;;22.07;68.27;100009.78;5035551;28;20406;-84
2021/06/29 05:41:41;;;;;;;3.95;2.58;;;;;;;22.05;68.50;100018.41;5041896;28;20398;-84
2021/06/29 05:44:06;;;;;;;3.40;2.83;;;;;;;22.04;68.33;100022.31;5040970;28;20402;-83
2021/06/29 05:46:31;;;;;;;4.17;2.20;;;;;;;22.03;68.42;100017.13;5049026;28;20468;-84
2021/06/29 05:48:56;;;;;;;4.87;2.70;;;;;;;22.06;68.68;100022.78;5067689;28;20908;-84
2021/06/29 05:51:22;;;;;;;5.60;2.60;;;;;;;22.09;68.50;100015.81;5039727;28;20415;-84
2021/06/29 05:53:47;;;;;;;4.70;2.33;;;;;;;22.10;68.26;100017.41;5052524;28;20861;-84
2021/06/29 05:56:14;;;;;;;5.27;2.57;;;;;;;22.15;68.34;100020.81;5052256;28;20389;-84
2021/06/29 05:58:40;;;;;;;5.10;2.45;;;;;;;22.20;68.00;100014.25;5046271;28;20413;-84
2021/06/29 06:01:07;;;;;;;6.88;2.42;;;;;;;22.26;68.20;100024.00;5059677;28;20393;-85
2021/06/29 06:03:33;;;;;;;3.42;2.38;;;;;;;22.30;68.32;100024.94;5039192;28;20405;-85
2021/06/29 06:05:58;;;;;;;2.90;2.10;;;;;;;22.29;68.03;100022.53;5050831;28;20997;-84
2021/06/29 06:08:24;;;;;;;4.43;2.93;;;;;;;22.33;68.00;100029.00;5049881;28;20421;-84
2021/06/29 06:10:50;;;;;;;2.30;2.20;;;;;;;22.33;67.79;100029.78;5044694;28;20462;-85
2021/06/29 06:13:15;;;;;;;4.03;2.10;;;;;;;22.42;68.33;100025.03;5039727;28;20754;-85
2021/06/29 06:15:41;;;;;;;6.97;2.60;;;;;;;22.43;68.03;100021.13;5051867;28;20469;-85
2021/06/29 06:18:06;;;;;;;5.57;2.23;;;;;;;22.46;68.25;100017.69;5052060;28;20428;-85
2021/06/29 06:20:35;;;;;;;2.97;2.67;;;;;;;22.51;67.93;100014.75;5051996;28;20481;-84
2021/06/29 06:23:01;;;;;;;4.37;2.40;;;;;;;22.59;67.37;100013.88;5043830;28;20730;-84
2021/06/29 06:25:27;;;;;;;4.88;2.33;;;;;;;22.55;67.39;100021.22;5037066;28;20770;-84
2021/06/29 06:27:52;;;;;;;2.67;2.35;;;;;;;22.53;67.03;100019.91;5042517;28;20401;-84
2021/06/29 06:30:19;;;;;;;3.40;2.43;;;;;;;22.49;66.53;100013.47;5050618;28;20425;-84
2021/06/29 06:32:44;;;;;;;4.55;2.40;;;;;;;22.45;66.88;100015.28;5051700;28;20455;-84
2021/06/29 06:35:10;;;;;;;3.07;2.10;;;;;;;22.46;66.94;100016.91;5035888;28;20894;-84
2021/06/29 06:37:35;;;;;;;3.05;2.22;;;;;;;22.46;66.86;100009.41;5043722;28;20492;-84
2021/06/29 06:40:00;;;;;;;2.53;2.23;;;;;;;22.52;66.51;100004.50;5043518;28;20417;-85
2021/06/29 06:42:25;;;;;;;2.87;2.67;;;;;;;22.57;66.31;100007.06;5035058;28;20421;-86
2021/06/29 06:44:51;;;;;;;2.80;2.00;;;;;;;22.65;66.26;99995.97;5048158;28;20439;-87
2021/06/29 06:47:16;;;;;;;3.20;2.20;;;;;;;22.70;66.48;100017.88;5037690;28;20439;-87
2021/06/29 06:49:41;;;;;;;2.37;2.13;;;;;;;22.80;65.88;100010.34;5048200;28;20414;-87
2021/06/29 06:52:07;;;;;;;4.50;2.10;;;;;;;22.89;65.37;100013.84;5036614;28;20411;-87
2021/06/29 06:54:33;;;;;;;2.22;2.03;;;;;;;22.83;65.12;100006.91;5044840;28;20401;-87
2021/06/29 06:56:58;;;;;;;4.87;2.10;;;;;;;22.69;65.00;100004.41;5051242;28;20400;-87
2021/06/29 06:59:23;;;;;;;4.87;2.17;;;;;;;22.61;65.82;99996.97;5051464;28;20398;-87
2021/06/29 07:01:49;;;;;;;2.40;1.90;;;;;;;22.63;65.85;99994.66;5051080;28;20394;-87
2021/06/29 07:04:16;;;;;;;5.73;2.53;;;;;;;22.78;65.25;99985.03;5049167;28;20402;-86
2021/06/29 07:06:41;;;;;;;3.13;2.25;;;;;;;22.83;64.64;99971.78;5049809;28;20401;-87
2021/06/29 07:09:07;;;;;;;4.23;2.13;;;;;;;22.90;64.09;99974.84;5042044;28;20550;-87
2021/06/29 07:11:32;;;;;;;4.93;2.30;;;;;;;22.93;64.37;99979.69;5051803;28;21038;-86
2021/06/29 07:13:57;;;;;;;2.90;2.33;;;;;;;23.06;64.28;99969.47;5051379;28;20393;-86
2021/06/29 07:16:23;;;;;;;2.22;2.03;;;;;;;23.10;63.68;99959.38;5031626;28;20492;-87
2021/06/29 07:18:48;;;;;;;4.07;2.67;;;;;;;23.14;62.99;99960.31;5050253;28;20481;-88
2021/06/29 07:21:13;;;;;;;2.20;2.10;;;;;;;23.21;63.37;99966.91;5063509;28;20401;-88
2021/06/29 07:23:39;;;;;;;6.87;2.53;;;;;;;23.31;63.67;99971.19;5066491;28;20404;-87
2021/06/29 07:26:04;;;;;;;3.00;2.05;;;;;;;23.38;62.74;99963.13;5039770;28;20461;-87
2021/06/29 07:28:29;;;;;;;4.50;2.07;;;;;;;23.42;62.02;99958.56;5031605;28;20887;-88
2021/06/29 07:30:55;;;;;;;4.43;2.00;;;;;;;23.47;62.06;99952.84;5047901;28;20393;-87
2021/06/29 07:33:20;;;;;;;4.07;2.43;;;;;;;23.59;62.33;99955.59;5051138;28;20492;-87
2021/06/29 07:35:46;;;;;;;2.78;2.20;;;;;;;23.73;61.97;99961.63;5050017;28;20432;-88
2021/06/29 07:38:11;;;;;;;2.80;1.80;;;;;;;23.83;61.24;99956.78;5051050;28;20390;-87
2021/06/29 07:40:36;;;;;;;1.83;1.73;;;;;;;23.88;61.22;99962.06;5051016;28;20884;-88
2021/06/29 07:43:02;;;;;;;2.30;2.03;;;;;;;23.97;60.70;99957.25;5041246;28;20410;-87
2021/06/29 07:45:29;;;;;;;2.95;1.75;;;;;;;24.07;60.93;99962.34;5049766;28;20396;-87
2021/06/29 07:47:57;;;;;;;3.33;2.10;;;;;;;24.11;60.24;99964.03;5047345;28;20397;-87
2021/06/29 07:50:23;;;;;;;3.10;2.20;;;;;;;24.18;60.20;99953.22;5032361;28;20425;-87
2021/06/29 07:52:49;;;;;;;5.30;2.50;;;;;;;24.29;60.00;99948.03;5035735;28;20418;-87
2021/06/29 07:55:14;;;;;;;2.10;1.90;;;;;;;24.39;59.75;99946.75;5045722;28;20397;-87
2021/06/29 07:57:39;;;;;;;1.80;1.60;;;;;;;24.55;59.51;99940.13;5053465;28;20543;-87
2021/06/29 08:00:06;;;;;;;1.80;1.70;;;;;;;24.62;58.52;99934.81;5044820;28;20461;-87
2021/06/29 08:02:32;;;;;;;3.50;1.77;;;;;;;24.66;58.52;99927.41;5051181;28;20425;-88
2021/06/29 08:04:57;;;;;;;3.17;2.00;;;;;;;24.78;58.46;99926.56;5046980;28;21082;-88
2021/06/29 08:07:23;;;;;;;4.13;1.73;;;;;;;24.77;57.07;99913.84;5046146;28;20403;-88
2021/06/29 08:09:48;;;;;;;2.00;1.63;;;;;;;24.94;57.88;99915.53;5043146;28;20927;-87
2021/06/29 08:12:13;;;;;;;2.60;2.40;;;;;;;25.02;57.75;99912.63;5041611;28;20804;-90
2021/06/29 08:14:39;;;;;;;2.60;1.60;;;;;;;25.06;56.65;99909.94;5054237;28;20472;-88
2021/06/29 08:17:05;;;;;;;1.87;1.63;;;;;;;24.76;56.33;99917.78;5051715;28;20444;-88
2021/06/29 08:19:30;;;;;;;2.15;1.55;;;;;;;24.88;56.55;99920.53;5053489;28;20603;-89
2021/06/29 08:21:56;;;;;;;2.53;1.40;;;;;;;25.07;57.67;99911.53;5052231;28;20522;-88
2021/06/29 08:24:22;;;;;;;5.88;1.73;;;;;;;25.25;57.55;99910.06;5043277;28;20417;-88
2021/06/29 08:26:47;;;;;;;1.57;1.47;;;;;;;25.43;55.78;99913.28;5048895;28;21189;-88
2021/06/29 08:29:13;;;;;;;6.13;2.07;;;;;;;25.42;56.16;99912.50;5054213;28;20401;-89
2021/06/29 08:31:38;;;;;;;2.78;1.75;;;;;;;25.21;56.72;99907.19;5068626;28;21087;-88
2021/06/29 08:34:04;;;;;;;1.97;1.50;;;;;;;25.33;54.99;99911.03;5044678;28;20403;-89
2021/06/29 08:36:30;;;;;;;1.88;1.20;;;;;;;25.50;56.26;99913.50;5042659;28;20398;-88
2021/06/29 08:38:57;;;;;;;2.22;1.55;;;;;;;25.70;55.11;99910.47;5049963;28;20804;-89
2021/06/29 08:41:22;;;;;;;2.05;1.55;;;;;;;25.88;54.98;99907.34;5045264;28;20409;-89
2021/06/29 08:43:48;;;;;;;2.17;1.33;;;;;;;26.05;55.08;99904.97;5053764;28;20466;-89
2021/06/29 08:46:13;;;;;;;3.07;1.67;;;;;;;26.19;53.49;99896.19;5050799;28;20407;-89
2021/06/29 08:48:38;;;;;;;1.70;1.60;;;;;;;26.18;53.47;99894.59;5044129;28;20446;-89
2021/06/29 08:51:07;;;;;;;2.47;1.37;;;;;;;26.39;52.45;99889.50;5046393;28;20988;-88
2021/06/29 08:53:34;;;;;;;2.10;1.90;;;;;;;26.15;52.05;99884.16;5053724;28;20861;-88
2021/06/29 08:56:00;;;;;;;2.38;1.40;;;;;;;26.05;53.08;99893.84;5053704;28;20884;-89
2021/06/29 08:58:28;;;;;;;2.40;1.13;;;;;;;26.57;52.83;99889.88;5057183;28;20450;-89
2021/06/29 09:00:54;;;;;;;2.90;1.70;;;;;;;27.75;50.16;99894.50;5033778;28;20475;-88
2021/06/29 09:03:20;;;;;;;1.50;1.40;;;;;;;28.69;47.63;99894.31;5043738;28;20459;-88
2021/06/29 09:05:49;;;;;;;1.20;1.15;;;;;;;28.24;48.44;99889.72;5050682;28;20492;-89
2021/06/29 09:08:17;;;;;;;1.45;1.20;;;;;;;29.26;44.75;99878.22;5040777;28;20426;-89
2021/06/29 09:11:06;;;;;;;2.13;1.00;;;;;;;30.23;42.35;99870.25;5042725;28;20412;-89
2021/06/29 09:13:31;;;;;;;1.65;1.55;;;;;;;30.15;42.12;99869.38;5052330;28;21039;-88
2021/06/29 09:15:57;;;;;;;3.73;1.40;;;;;;;30.30;42.65;99862.66;5053160;28;20462;-89
2021/06/29 09:18:25;;;;;;;1.92;1.40;;;;;;;30.55;42.44;99876.00;5051936;28;20421;-89
2021/06/29 09:21:02;;;;;;;1.10;1.10;;;;;;;30.15;42.10;99863.81;5051329;28;20409;-89
2021/06/29 09:23:31;;;;;;;2.70;1.00;;;;;;;29.58;43.21;99873.72;5050339;28;20517;-89
2021/06/29 09:26:03;;;;;;;1.40;1.30;;;;;;;29.28;45.44;99871.06;5044814;28;20422;-88
2021/06/29 09:28:32;;;;;;;1.45;1.30;;;;;;;29.31;44.95;99866.72;5048820;28;20394;-88
2021/06/29 09:31:11;;;;;;;1.25;0.93;;;;;;;28.92;45.23;99851.53;5041715;28;20443;-88
2021/06/29 09:33:42;;;;;;;1.50;1.13;;;;;;;28.89;46.10;99853.09;5047541;28;20403;-89
2021/06/29 09:36:13;;;;;;;1.30;1.20;;;;;;;29.63;43.80;99856.63;5047705;28;20393;-88
2021/06/29 09:38:40;;;;;;;1.40;1.40;;;;;;;30.67;43.80;99858.88;5053010;28;20389;-88
2021/06/29 09:41:08;;;;;;;2.58;1.42;;;;;;;31.88;40.53;99855.03;5049929;28;20432;-90
2021/06/29 09:43:39;;;;;;;1.40;1.30;;;;;;;32.93;38.61;99850.31;5042335;28;20465;-91
2021/06/29 09:46:10;;;;;;;1.88;1.23;;;;;;;33.54;36.86;99843.06;5037866;28;20396;-88
2021/06/29 09:48:40;;;;;;;1.40;1.30;;;;;;;34.18;35.96;99834.06;5048378;28;20479;-89
2021/06/29 09:51:12;;;;;;;2.25;1.40;;;;;;;34.66;35.78;99845.94;5052675;28;20876;-88
2021/06/29 09:53:47;;;;;;;6.75;1.40;;;;;;;35.02;34.39;99848.25;5046724;28;20407;-88
2021/06/29 09:56:17;;;;;;;2.10;1.20;;;;;;;35.26;33.98;99845.09;5042139;28;20464;-88
2021/06/29 09:58:46;;;;;;;1.50;0.88;;;;;;;35.63;32.88;99844.13;5045734;28;20405;-89
2021/06/29 10:01:15;;;;;;;1.90;1.10;;;;;;;35.98;31.41;99837.03;5040196;28;20439;-89
2021/06/29 10:03:42;;;;;;;3.07;1.57;;;;;;;36.16;32.63;99851.59;5045780;28;20485;-89
2021/06/29 10:06:16;;;;;;;1.60;0.90;;;;;;;36.33;31.88;99844.03;5047782;28;20492;-90
2021/06/29 10:08:43;;;;;;;1.60;1.10;;;;;;;36.38;31.30;99844.34;5065882;28;20452;-88
2021/06/29 10:11:18;;;;;;;1.67;0.97;;;;;;;36.53;30.12;99844.00;5049284;28;20406;-90
2021/06/29 10:13:48;;;;;;;1.08;1.00;;;;;;;36.63;31.19;99838.19;5036858;28;20410;-89
2021/06/29 10:16:14;;;;;;;1.58;1.08;;;;;;;36.58;30.25;99835.88;5039888;28;20781;-89
2021/06/29 10:21:21;;;;;;;5.53;1.10;;;;;;;36.82;30.28;99831.69;5052022;28;20474;-90
2021/06/29 10:23:49;;;;;;;1.67;1.03;;;;;;;36.58;30.94;99829.44;5052074;28;20382;-90
2021/06/29 10:26:15;;;;;;;0.80;0.80;;;;;;;36.69;30.45;99830.78;5051976;28;20896;-90
2021/06/29 10:28:41;;;;;;;0.90;0.90;;;;;;;36.69;30.39;99825.13;5051856;28;20478;-89
2021/06/29 10:31:07;;;;;;;1.85;1.08;;;;;;;37.16;28.71;99830.53;5049964;28;20492;-89
2021/06/29 10:33:33;;;;;;;2.00;1.30;;;;;;;36.85;30.14;99830.81;5043863;28;20416;-90
2021/06/29 10:36:01;;;;;;;2.25;0.98;;;;;;;36.76;30.13;99818.53;5049685;28;20879;-90
2021/06/29 10:38:27;;;;;;;1.98;1.02;;;;;;;36.90;29.12;99815.41;5044109;28;20406;-90
2021/06/29 10:40:54;;;;;;;1.13;1.10;;;;;;;37.25;29.73;99810.94;5051007;28;20397;-88
2021/06/29 10:43:20;;;;;;;1.42;1.33;;;;;;;37.47;28.17;99816.91;5048327;28;20413;-90
2021/06/29 10:48:30;;;;;;;2.00;1.20;;;;;;;38.03;27.69;99812.59;5036121;28;20421;-88
2021/06/29 10:50:58;;;;;;;0.93;0.90;;;;;;;37.90;27.85;99817.38;5050204;28;20743;-90
2021/06/29 10:53:43;;;;;;;1.13;1.03;;;;;;;36.56;28.54;99812.13;5050431;28;20422;-90
2021/06/29 10:56:16;;;;;;;0.95;0.95;;;;;;;35.08;31.61;99810.75;5051688;28;20394;-90
2021/06/29 10:58:51;;;;;;;3.45;1.30;;;;;;;34.43;32.86;99803.63;5048429;28;20418;-89
2021/06/29 11:01:28;;;;;;;1.30;1.02;;;;;;;35.33;32.64;99801.94;5043993;28;20415;-89
2021/06/29 11:04:00;;;;;;;1.00;0.90;;;;;;;35.81;31.96;99796.66;5055442;28;20409;-90
2021/06/29 11:06:46;;;;;;;0.93;0.93;;;;;;;36.18;32.02;99792.75;5060365;28;20403;-88
2021/06/29 11:09:21;;;;;;;1.15;1.00;;;;;;;36.75;30.43;99788.72;5042814;28;20475;-88
2021/06/29 11:12:21;;;;;;;1.70;1.10;;;;;;;36.07;30.73;99780.06;5050634;28;20394;-89
2021/06/29 11:14:48;;;;;;;2.80;1.30;;;;;;;35.79;31.98;99779.41;5042639;28;20417;-90
2021/06/29 11:17:15;;;;;;;5.10;1.17;;;;;;;35.63;31.90;99773.66;5047941;28;20394;-89
2021/06/29 11:20:04;;;;;;;3.65;0.93;;;;;;;35.32;32.86;99770.16;5047324;28;20976;-90
2021/06/29 11:22:50;;;;;;;1.70;1.00;;;;;;;34.38;32.38;99762.66;5036274;28;20413;-85
2021/06/29 11:25:33;;;;;;;2.20;0.90;;;;;;;33.52;33.94;99763.25;5051685;28;20407;-88
2021/06/29 11:28:16;;;;;;;2.00;1.05;;;;;;;32.66;35.01;99757.47;5052936;28;20907;-88
2021/06/29 11:30:55;;;;;;;0.93;0.93;;;;;;;32.14;34.73;99755.72;5053310;28;20421;-89
2021/06/29 11:33:30;;;;;;;2.20;0.90;;;;;;;31.70;36.72;99751.44;5050451;28;20750;-89
2021/06/29 11:35:56;;;;;;;2.40;1.08;;;;;;;31.26;37.79;99745.44;5052916;28;20752;-88